sensor_id;sensor_type;location;lat;lon;timestamp;pressure;altitude;pressure_sealevel;temperature;humidity
75317;BME280;63913;51.492;10.368;2023-03-14T00:01:50;96113.13;;;9.78;77.15
75317;BME280;63913;51.492;10.368;2023-03-14T00:04:16;96108.03;;;9.75;77.85
75317;BME280;63913;51.492;10.368;2023-03-14T00:06:41;96126.09;;;9.68;77.14
75317;BME280;63913;51.492;10.368;2023-03-14T00:09:07;96131.34;;;9.57;77.63
75317;BME280;63913;51.492;10.368;2023-03-14T00:11:32;96151.00;;;9.60;77.42
75317;BME280;63913;51.492;10.368;2023-03-14T00:13:57;96133.84;;;9.63;77.26
75317;BME280;63913;51.492;10.368;2023-03-14T00:16:24;96124.50;;;9.57;77.76
75317;BME280;63913;51.492;10.368;2023-03-14T00:18:50;96123.63;;;9.58;77.20
75317;BME280;63913;51.492;10.368;2023-03-14T00:21:15;96108.22;;;9.60;76.95
75317;BME280;63913;51.492;10.368;2023-03-14T00:23:41;96124.50;;;9.57;77.39
75317;BME280;63913;51.492;10.368;2023-03-14T00:26:12;96146.72;;;9.57;77.52
75317;BME280;63913;51.492;10.368;2023-03-14T00:28:38;96165.59;;;9.54;77.99
75317;BME280;63913;51.492;10.368;2023-03-14T00:31:05;96181.06;;;9.48;78.07
75317;BME280;63913;51.492;10.368;2023-03-14T00:33:33;96177.72;;;9.40;78.67
75317;BME280;63913;51.492;10.368;2023-03-14T00:36:04;96188.84;;;9.39;78.39
75317;BME280;63913;51.492;10.368;2023-03-14T00:38:31;96204.19;;;9.41;78.24
75317;BME280;63913;51.492;10.368;2023-03-14T00:40:57;96208.56;;;9.34;78.79
75317;BME280;63913;51.492;10.368;2023-03-14T00:43:23;96216.16;;;9.43;77.52
75317;BME280;63913;51.492;10.368;2023-03-14T00:45:49;96228.13;;;9.41;77.86
75317;BME280;63913;51.492;10.368;2023-03-14T00:48:15;96241.78;;;9.45;78.41
75317;BME280;63913;51.492;10.368;2023-03-14T00:50:41;96264.88;;;9.45;78.13
75317;BME280;63913;51.492;10.368;2023-03-14T00:53:06;96250.31;;;9.47;78.12
75317;BME280;63913;51.492;10.368;2023-03-14T00:55:31;96235.78;;;9.47;78.18
75317;BME280;63913;51.492;10.368;2023-03-14T00:58:00;96246.91;;;9.46;78.47
75317;BME280;63913;51.492;10.368;2023-03-14T01:00:26;96251.19;;;9.47;78.18
75317;BME280;63913;51.492;10.368;2023-03-14T01:02:51;96236.66;;;9.48;78.48
75317;BME280;63913;51.492;10.368;2023-03-14T01:05:17;96229.75;;;9.53;77.30
75317;BME280;63913;51.492;10.368;2023-03-14T01:07:42;96226.34;;;9.51;78.08
75317;BME280;63913;51.492;10.368;2023-03-14T01:10:08;96216.06;;;9.51;77.55
75317;BME280;63913;51.492;10.368;2023-03-14T01:12:34;96222.06;;;9.50;77.52
75317;BME280;63913;51.492;10.368;2023-03-14T01:15:01;96215.22;;;9.52;76.87
75317;BME280;63913;51.492;10.368;2023-03-14T01:17:26;96208.44;;;9.46;77.76
75317;BME280;63913;51.492;10.368;2023-03-14T01:19:51;96208.44;;;9.46;77.37
75317;BME280;63913;51.492;10.368;2023-03-14T01:22:17;96211.84;;;9.47;76.74
75317;BME280;63913;51.492;10.368;2023-03-14T01:24:42;96216.16;;;9.45;76.72
75317;BME280;63913;51.492;10.368;2023-03-14T01:27:07;96199.03;;;9.45;76.74
75317;BME280;63913;51.492;10.368;2023-03-14T01:29:33;96190.50;;;9.45;77.14
75317;BME280;63913;51.492;10.368;2023-03-14T01:31:58;96194.00;;;9.39;77.37
75317;BME280;63913;51.492;10.368;2023-03-14T01:34:24;96192.31;;;9.35;77.41
75317;BME280;63913;51.492;10.368;2023-03-14T01:36:50;96191.44;;;9.36;77.03
75317;BME280;63913;51.492;10.368;2023-03-14T01:39:15;96180.31;;;9.37;77.24
75317;BME280;63913;51.492;10.368;2023-03-14T01:41:41;96176.00;;;9.41;77.71
75317;BME280;63913;51.492;10.368;2023-03-14T01:44:10;96174.34;;;9.38;77.16
75317;BME280;63913;51.492;10.368;2023-03-14T01:46:42;96172.63;;;9.36;77.17
75317;BME280;63913;51.492;10.368;2023-03-14T01:49:22;96141.88;;;9.36;76.82
75317;BME280;63913;51.492;10.368;2023-03-14T01:52:11;96160.66;;;9.36;76.37
75317;BME280;63913;51.492;10.368;2023-03-14T01:54:40;96161.53;;;9.34;77.31
75317;BME280;63913;51.492;10.368;2023-03-14T01:57:17;96163.25;;;9.33;76.55
75317;BME280;63913;51.492;10.368;2023-03-14T02:00:11;96166.75;;;9.26;76.88
75317;BME280;63913;51.492;10.368;2023-03-14T02:02:42;96156.53;;;9.23;76.82
75317;BME280;63913;51.492;10.368;2023-03-14T02:05:10;96145.47;;;9.19;77.65
75317;BME280;63913;51.492;10.368;2023-03-14T02:07:58;96149.81;;;9.14;77.15
75317;BME280;63913;51.492;10.368;2023-03-14T02:10:39;96142.97;;;9.15;77.13
75317;BME280;63913;51.492;10.368;2023-03-14T02:13:07;96157.47;;;9.16;76.93
75317;BME280;63913;51.492;10.368;2023-03-14T02:15:45;96142.91;;;9.16;76.97
75317;BME280;63913;51.492;10.368;2023-03-14T02:18:31;96144.59;;;9.21;76.94
75317;BME280;63913;51.492;10.368;2023-03-14T02:21:23;96159.97;;;9.22;76.64
75317;BME280;63913;51.492;10.368;2023-03-14T02:24:17;96118.94;;;9.22;76.44
75317;BME280;63913;51.492;10.368;2023-03-14T02:29:30;96134.34;;;9.19;76.22
75317;BME280;63913;51.492;10.368;2023-03-14T02:31:58;96122.41;;;9.16;77.01
75317;BME280;63913;51.492;10.368;2023-03-14T02:34:24;96127.59;;;9.12;76.84
75317;BME280;63913;51.492;10.368;2023-03-14T02:36:51;96141.25;;;9.14;76.63
75317;BME280;63913;51.492;10.368;2023-03-14T02:39:37;96129.28;;;9.16;76.29
75317;BME280;63913;51.492;10.368;2023-03-14T02:42:03;96139.53;;;9.16;76.48
75317;BME280;63913;51.492;10.368;2023-03-14T02:44:28;96132.66;;;9.18;76.43
75317;BME280;63913;51.492;10.368;2023-03-14T02:46:54;96132.63;;;9.19;76.44
75317;BME280;63913;51.492;10.368;2023-03-14T02:49:19;96120.66;;;9.22;75.87
75317;BME280;63913;51.492;10.368;2023-03-14T02:51:45;96118.09;;;9.22;76.35
75317;BME280;63913;51.492;10.368;2023-03-14T02:54:11;96101.81;;;9.26;75.95
75317;BME280;63913;51.492;10.368;2023-03-14T02:56:37;96108.63;;;9.27;75.63
75317;BME280;63913;51.492;10.368;2023-03-14T02:59:04;96107.78;;;9.28;75.87
75317;BME280;63913;51.492;10.368;2023-03-14T03:01:37;96078.72;;;9.26;75.25
75317;BME280;63913;51.492;10.368;2023-03-14T03:04:02;96069.31;;;9.28;76.17
75317;BME280;63913;51.492;10.368;2023-03-14T03:06:28;96076.16;;;9.26;76.06
75317;BME280;63913;51.492;10.368;2023-03-14T03:08:53;96082.19;;;9.23;76.23
75317;BME280;63913;51.492;10.368;2023-03-14T03:11:19;96078.78;;;9.21;76.63
75317;BME280;63913;51.492;10.368;2023-03-14T03:13:44;96073.66;;;9.21;76.21
75317;BME280;63913;51.492;10.368;2023-03-14T03:16:10;96069.38;;;9.22;76.53
75317;BME280;63913;51.492;10.368;2023-03-14T03:18:38;96075.34;;;9.24;75.70
75317;BME280;63913;51.492;10.368;2023-03-14T03:21:04;96074.50;;;9.22;76.47
75317;BME280;63913;51.492;10.368;2023-03-14T03:23:30;96082.22;;;9.22;76.72
75317;BME280;63913;51.492;10.368;2023-03-14T03:25:56;96077.06;;;9.23;75.57
75317;BME280;63913;51.492;10.368;2023-03-14T03:28:22;96064.22;;;9.25;76.21
75317;BME280;63913;51.492;10.368;2023-03-14T03:30:48;96080.50;;;9.21;76.29
75317;BME280;63913;51.492;10.368;2023-03-14T03:33:14;96062.47;;;9.27;75.07
75317;BME280;63913;51.492;10.368;2023-03-14T03:35:48;96049.66;;;9.28;75.43
75317;BME280;63913;51.492;10.368;2023-03-14T03:38:17;96053.06;;;9.27;75.29
75317;BME280;63913;51.492;10.368;2023-03-14T03:40:46;96040.25;;;9.29;75.58
75317;BME280;63913;51.492;10.368;2023-03-14T03:43:11;96028.28;;;9.28;75.89
75317;BME280;63913;51.492;10.368;2023-03-14T03:45:40;96042.81;;;9.27;75.78
75317;BME280;63913;51.492;10.368;2023-03-14T03:48:05;96062.56;;;9.21;75.97
75317;BME280;63913;51.492;10.368;2023-03-14T03:50:31;96045.44;;;9.24;75.44
75317;BME280;63913;51.492;10.368;2023-03-14T03:52:56;96056.50;;;9.26;75.28
75317;BME280;63913;51.492;10.368;2023-03-14T03:55:21;96063.38;;;9.24;75.43
75317;BME280;63913;51.492;10.368;2023-03-14T03:57:47;96057.38;;;9.25;75.51
75317;BME280;63913;51.492;10.368;2023-03-14T04:00:12;96032.56;;;9.29;75.65
75317;BME280;63913;51.492;10.368;2023-03-14T04:02:41;96047.09;;;9.27;75.28
75317;BME280;63913;51.492;10.368;2023-03-14T04:05:09;96043.66;;;9.28;75.63
75317;BME280;63913;51.492;10.368;2023-03-14T04:07:35;96047.09;;;9.27;75.54
75317;BME280;63913;51.492;10.368;2023-03-14T04:10:01;96042.03;;;9.24;75.52
75317;BME280;63913;51.492;10.368;2023-03-14T04:12:33;96034.34;;;9.24;75.53
75317;BME280;63913;51.492;10.368;2023-03-14T04:15:09;96030.06;;;9.24;75.77
75317;BME280;63913;51.492;10.368;2023-03-14T04:17:36;96036.06;;;9.22;76.18
75317;BME280;63913;51.492;10.368;2023-03-14T04:20:01;96042.06;;;9.21;75.60
75317;BME280;63913;51.492;10.368;2023-03-14T04:22:33;96023.19;;;9.25;75.13
75317;BME280;63913;51.492;10.368;2023-03-14T04:24:59;96028.31;;;9.25;75.64
75317;BME280;63913;51.492;10.368;2023-03-14T04:27:24;96014.69;;;9.23;75.03
75317;BME280;63913;51.492;10.368;2023-03-14T04:29:50;96018.13;;;9.20;75.65
75317;BME280;63913;51.492;10.368;2023-03-14T04:32:20;96036.94;;;9.21;75.92
75317;BME280;63913;51.492;10.368;2023-03-14T04:34:46;96027.44;;;9.26;74.64
75317;BME280;63913;51.492;10.368;2023-03-14T04:37:12;96012.94;;;9.25;75.04
75317;BME280;63913;51.492;10.368;2023-03-14T04:39:41;96017.19;;;9.27;74.03
75317;BME280;63913;51.492;10.368;2023-03-14T04:42:23;96012.03;;;9.29;74.29
75317;BME280;63913;51.492;10.368;2023-03-14T04:44:49;96013.75;;;9.27;73.63
75317;BME280;63913;51.492;10.368;2023-03-14T04:47:15;95991.53;;;9.27;73.84
75317;BME280;63913;51.492;10.368;2023-03-14T04:49:41;95983.88;;;9.26;74.32
75317;BME280;63913;51.492;10.368;2023-03-14T04:52:09;95994.19;;;9.21;74.28
75317;BME280;63913;51.492;10.368;2023-03-14T04:54:36;95999.31;;;9.23;73.99
75317;BME280;63913;51.492;10.368;2023-03-14T04:57:01;96001.78;;;9.29;72.85
75317;BME280;63913;51.492;10.368;2023-03-14T04:59:29;95999.19;;;9.30;73.29
75317;BME280;63913;51.492;10.368;2023-03-14T05:02:01;95994.13;;;9.26;74.48
75317;BME280;63913;51.492;10.368;2023-03-14T05:04:46;95993.34;;;9.19;74.79
75317;BME280;63913;51.492;10.368;2023-03-14T05:07:39;95990.88;;;9.14;74.77
75317;BME280;63913;51.492;10.368;2023-03-14T05:10:30;95991.75;;;9.12;75.48
75317;BME280;63913;51.492;10.368;2023-03-14T05:13:14;95975.50;;;9.11;74.07
75317;BME280;63913;51.492;10.368;2023-03-14T05:16:09;95969.56;;;9.09;74.32
75317;BME280;63913;51.492;10.368;2023-03-14T05:18:44;95976.38;;;9.09;74.35
75317;BME280;63913;51.492;10.368;2023-03-14T05:21:28;95972.16;;;9.06;73.78
75317;BME280;63913;51.492;10.368;2023-03-14T05:24:11;95978.16;;;9.05;73.15
75317;BME280;63913;51.492;10.368;2023-03-14T05:26:55;95983.22;;;9.08;72.98
75317;BME280;63913;51.492;10.368;2023-03-14T05:29:31;95986.63;;;9.09;72.08
75317;BME280;63913;51.492;10.368;2023-03-14T05:32:05;95984.94;;;9.09;72.95
75317;BME280;63913;51.492;10.368;2023-03-14T05:34:49;95978.94;;;9.10;72.55
75317;BME280;63913;51.492;10.368;2023-03-14T05:37:26;95977.25;;;9.09;72.20
75317;BME280;63913;51.492;10.368;2023-03-14T05:40:10;95984.06;;;9.10;71.67
75317;BME280;63913;51.492;10.368;2023-03-14T05:42:42;95964.41;;;9.09;71.61
75317;BME280;63913;51.492;10.368;2023-03-14T05:45:17;95974.66;;;9.12;70.92
75317;BME280;63913;51.492;10.368;2023-03-14T05:47:55;95960.91;;;9.16;70.70
75317;BME280;63913;51.492;10.368;2023-03-14T05:50:57;95964.38;;;9.15;70.41
75317;BME280;63913;51.492;10.368;2023-03-14T05:53:35;95962.69;;;9.13;70.82
75317;BME280;63913;51.492;10.368;2023-03-14T05:56:32;95970.38;;;9.13;71.13
75317;BME280;63913;51.492;10.368;2023-03-14T05:59:13;95977.25;;;9.09;71.61
75317;BME280;63913;51.492;10.368;2023-03-14T06:01:47;95980.72;;;9.05;71.89
75317;BME280;63913;51.492;10.368;2023-03-14T06:04:17;95988.41;;;9.05;71.81
75317;BME280;63913;51.492;10.368;2023-03-14T06:06:47;95986.72;;;9.04;71.99
75317;BME280;63913;51.492;10.368;2023-03-14T06:09:13;95984.16;;;9.03;71.69
75317;BME280;63913;51.492;10.368;2023-03-14T06:11:41;95997.81;;;9.05;71.46
75317;BME280;63913;51.492;10.368;2023-03-14T06:14:07;96012.34;;;9.06;71.52
75317;BME280;63913;51.492;10.368;2023-03-14T06:16:32;95990.97;;;9.05;72.30
75317;BME280;63913;51.492;10.368;2023-03-14T06:18:58;95988.41;;;9.05;71.59
75317;BME280;63913;51.492;10.368;2023-03-14T06:21:25;96013.19;;;9.06;71.29
75317;BME280;63913;51.492;10.368;2023-03-14T06:23:50;95999.53;;;9.04;72.13
75317;BME280;63913;51.492;10.368;2023-03-14T06:26:16;96001.22;;;9.07;71.52
75317;BME280;63913;51.492;10.368;2023-03-14T06:28:42;95997.81;;;9.05;71.13
75317;BME280;63913;51.492;10.368;2023-03-14T06:31:07;95996.09;;;9.07;71.29
75317;BME280;63913;51.492;10.368;2023-03-14T06:33:40;95982.44;;;9.06;70.88
75317;BME280;63913;51.492;10.368;2023-03-14T06:36:07;95985.00;;;9.03;71.44
75317;BME280;63913;51.492;10.368;2023-03-14T06:38:34;95985.88;;;9.02;71.07
75317;BME280;63913;51.492;10.368;2023-03-14T06:41:06;95994.34;;;9.09;70.41
75317;BME280;63913;51.492;10.368;2023-03-14T06:43:37;95993.53;;;9.07;71.81
75317;BME280;63913;51.492;10.368;2023-03-14T06:46:04;95981.56;;;9.06;70.93
75317;BME280;63913;51.492;10.368;2023-03-14T06:48:31;95985.78;;;9.08;71.15
75317;BME280;63913;51.492;10.368;2023-03-14T06:50:57;95973.81;;;9.09;70.68
75317;BME280;63913;51.492;10.368;2023-03-14T06:53:22;95968.69;;;9.09;71.34
75317;BME280;63913;51.492;10.368;2023-03-14T06:55:48;95976.38;;;9.12;71.34
75317;BME280;63913;51.492;10.368;2023-03-14T06:58:15;95977.13;;;9.18;70.65
75317;BME280;63913;51.492;10.368;2023-03-14T07:00:43;95976.25;;;9.19;70.89
75317;BME280;63913;51.492;10.368;2023-03-14T07:03:13;95977.13;;;9.18;70.82
75317;BME280;63913;51.492;10.368;2023-03-14T07:05:39;95988.22;;;9.19;71.28
75317;BME280;63913;51.492;10.368;2023-03-14T07:08:07;95978.78;;;9.23;71.53
75317;BME280;63913;51.492;10.368;2023-03-14T07:10:33;95990.75;;;9.22;71.81
75317;BME280;63913;51.492;10.368;2023-03-14T07:12:58;95986.47;;;9.24;71.86
75317;BME280;63913;51.492;10.368;2023-03-14T07:15:27;95989.81;;;9.28;71.77
75317;BME280;63913;51.492;10.368;2023-03-14T07:17:56;95974.44;;;9.29;72.27
75317;BME280;63913;51.492;10.368;2023-03-14T07:20:23;95989.81;;;9.29;72.17
75317;BME280;63913;51.492;10.368;2023-03-14T07:22:49;95994.94;;;9.28;72.33
75317;BME280;63913;51.492;10.368;2023-03-14T07:25:17;95986.41;;;9.27;72.75
75317;BME280;63913;51.492;10.368;2023-03-14T07:27:46;95984.69;;;9.29;72.48
75317;BME280;63913;51.492;10.368;2023-03-14T07:30:13;95997.50;;;9.29;73.16
75317;BME280;63913;51.492;10.368;2023-03-14T07:32:39;95995.81;;;9.27;72.46
75317;BME280;63913;51.492;10.368;2023-03-14T07:35:06;95985.56;;;9.28;73.08
75317;BME280;63913;51.492;10.368;2023-03-14T07:37:34;95999.22;;;9.27;72.74
75317;BME280;63913;51.492;10.368;2023-03-14T07:40:01;96012.91;;;9.28;73.22
75317;BME280;63913;51.492;10.368;2023-03-14T07:42:29;95998.34;;;9.30;72.58
75317;BME280;63913;51.492;10.368;2023-03-14T07:45:10;96009.41;;;9.33;72.50
75317;BME280;63913;51.492;10.368;2023-03-14T07:47:35;96003.41;;;9.33;72.58
75317;BME280;63913;51.492;10.368;2023-03-14T07:50:01;96025.63;;;9.34;71.60
75317;BME280;63913;51.492;10.368;2023-03-14T07:52:26;95995.69;;;9.36;71.03
75317;BME280;63913;51.492;10.368;2023-03-14T07:54:51;95993.91;;;9.41;71.71
75317;BME280;63913;51.492;10.368;2023-03-14T07:57:17;96000.75;;;9.42;71.68
75317;BME280;63913;51.492;10.368;2023-03-14T07:59:42;95998.22;;;9.40;72.15
75317;BME280;63913;51.492;10.368;2023-03-14T08:02:11;95984.47;;;9.44;71.49
75317;BME280;63913;51.492;10.368;2023-03-14T08:04:38;95982.75;;;9.46;71.45
75317;BME280;63913;51.492;10.368;2023-03-14T08:07:04;95996.44;;;9.45;71.64
75317;BME280;63913;51.492;10.368;2023-03-14T08:09:29;95980.16;;;9.48;70.82
75317;BME280;63913;51.492;10.368;2023-03-14T08:11:55;95983.56;;;9.48;71.25
75317;BME280;63913;51.492;10.368;2023-03-14T08:14:20;95974.13;;;9.49;71.61
75317;BME280;63913;51.492;10.368;2023-03-14T08:16:49;95967.28;;;9.49;71.61
75317;BME280;63913;51.492;10.368;2023-03-14T08:19:14;95967.28;;;9.49;71.01
75317;BME280;63913;51.492;10.368;2023-03-14T08:21:39;95961.31;;;9.49;70.75
75317;BME280;63913;51.492;10.368;2023-03-14T08:24:05;95971.56;;;9.49;70.95
75317;BME280;63913;51.492;10.368;2023-03-14T08:26:31;95959.66;;;9.45;71.88
75317;BME280;63913;51.492;10.368;2023-03-14T08:28:56;95957.09;;;9.45;72.01
75317;BME280;63913;51.492;10.368;2023-03-14T08:31:22;95948.56;;;9.44;71.79
75317;BME280;63913;51.492;10.368;2023-03-14T08:33:47;95962.22;;;9.48;72.41
75317;BME280;63913;51.492;10.368;2023-03-14T08:36:12;95961.28;;;9.52;71.98
75317;BME280;63913;51.492;10.368;2023-03-14T08:38:38;95956.97;;;9.54;71.72
75317;BME280;63913;51.492;10.368;2023-03-14T08:41:03;95967.16;;;9.58;71.49
75317;BME280;63913;51.492;10.368;2023-03-14T08:43:30;95973.97;;;9.60;72.23
75317;BME280;63913;51.492;10.368;2023-03-14T08:45:59;95971.38;;;9.63;72.00
75317;BME280;63913;51.492;10.368;2023-03-14T08:48:24;95981.69;;;9.60;72.30
75317;BME280;63913;51.492;10.368;2023-03-14T08:50:50;95986.81;;;9.58;72.00
75317;BME280;63913;51.492;10.368;2023-03-14T08:53:15;96001.34;;;9.61;72.05
75317;BME280;63913;51.492;10.368;2023-03-14T08:55:40;95992.78;;;9.60;72.38
75317;BME280;63913;51.492;10.368;2023-03-14T08:58:06;95987.75;;;9.55;72.09
75317;BME280;63913;51.492;10.368;2023-03-14T09:00:31;95982.63;;;9.54;72.72
75317;BME280;63913;51.492;10.368;2023-03-14T09:02:56;95980.06;;;9.52;72.72
75317;BME280;63913;51.492;10.368;2023-03-14T09:05:22;95986.06;;;9.53;73.08
75317;BME280;63913;51.492;10.368;2023-03-14T09:07:47;95989.47;;;9.53;73.35
75317;BME280;63913;51.492;10.368;2023-03-14T09:10:12;95992.91;;;9.51;72.63
75317;BME280;63913;51.492;10.368;2023-03-14T09:12:38;95987.78;;;9.51;72.92
75317;BME280;63913;51.492;10.368;2023-03-14T09:15:03;95986.09;;;9.50;73.07
75317;BME280;63913;51.492;10.368;2023-03-14T09:17:29;95982.75;;;9.46;73.11
75317;BME280;63913;51.492;10.368;2023-03-14T09:19:54;95984.38;;;9.50;73.34
75317;BME280;63913;51.492;10.368;2023-03-14T09:22:20;95994.59;;;9.53;73.48
75317;BME280;63913;51.492;10.368;2023-03-14T09:24:45;95980.91;;;9.56;73.04
75317;BME280;63913;51.492;10.368;2023-03-14T09:27:11;95988.53;;;9.57;73.17
75317;BME280;63913;51.492;10.368;2023-03-14T09:29:37;95991.06;;;9.61;72.34
75317;BME280;63913;51.492;10.368;2023-03-14T09:32:02;95990.22;;;9.62;73.15
75317;BME280;63913;51.492;10.368;2023-03-14T09:34:28;95971.38;;;9.64;71.98
75317;BME280;63913;51.492;10.368;2023-03-14T09:36:53;95990.13;;;9.68;73.13
75317;BME280;63913;51.492;10.368;2023-03-14T09:39:19;95986.78;;;9.63;72.34
75317;BME280;63913;51.492;10.368;2023-03-14T09:41:47;95984.16;;;9.66;72.43
75317;BME280;63913;51.492;10.368;2023-03-14T09:44:29;95985.84;;;9.68;72.74
75317;BME280;63913;51.492;10.368;2023-03-14T09:46:57;96005.50;;;9.69;72.39
75317;BME280;63913;51.492;10.368;2023-03-14T09:49:30;95988.97;;;9.88;71.87
75317;BME280;63913;51.492;10.368;2023-03-14T09:51:58;95983.88;;;9.84;71.49
75317;BME280;63913;51.492;10.368;2023-03-14T09:54:57;95989.03;;;9.82;72.07
75317;BME280;63913;51.492;10.368;2023-03-14T09:57:24;95985.59;;;9.83;72.31
75317;BME280;63913;51.492;10.368;2023-03-14T09:59:53;95987.28;;;9.86;72.01
75317;BME280;63913;51.492;10.368;2023-03-14T10:02:34;95993.25;;;9.88;71.67
75317;BME280;63913;51.492;10.368;2023-03-14T10:05:00;96001.75;;;9.90;71.55
75317;BME280;63913;51.492;10.368;2023-03-14T10:07:30;95992.31;;;9.92;71.83
75317;BME280;63913;51.492;10.368;2023-03-14T10:09:56;95989.69;;;9.95;71.03
75317;BME280;63913;51.492;10.368;2023-03-14T10:12:32;95981.09;;;9.98;71.00
75317;BME280;63913;51.492;10.368;2023-03-14T10:15:05;95981.91;;;10.01;71.17
75317;BME280;63913;51.492;10.368;2023-03-14T10:18:00;95985.28;;;10.03;71.07
75317;BME280;63913;51.492;10.368;2023-03-14T10:20:33;95984.44;;;10.03;71.51
75317;BME280;63913;51.492;10.368;2023-03-14T10:23:18;95976.78;;;10.00;71.30
75317;BME280;63913;51.492;10.368;2023-03-14T10:25:46;95984.47;;;10.00;71.33
75317;BME280;63913;51.492;10.368;2023-03-14T10:28:24;95981.03;;;10.02;71.08
75317;BME280;63913;51.492;10.368;2023-03-14T10:30:50;95985.31;;;10.02;71.40
75317;BME280;63913;51.492;10.368;2023-03-14T10:33:28;95985.34;;;10.00;71.81
75317;BME280;63913;51.492;10.368;2023-03-14T10:36:19;95997.22;;;10.06;71.83
75317;BME280;63913;51.492;10.368;2023-03-14T10:38:46;95998.88;;;10.10;71.80
75317;BME280;63913;51.492;10.368;2023-03-14T10:41:19;95998.84;;;10.13;71.85
75317;BME280;63913;51.492;10.368;2023-03-14T10:43:50;95999.63;;;10.16;71.46
75317;BME280;63913;51.492;10.368;2023-03-14T10:46:17;95988.47;;;10.19;71.84
75317;BME280;63913;51.492;10.368;2023-03-14T10:49:05;95988.47;;;10.20;71.09
75317;BME280;63913;51.492;10.368;2023-03-14T10:51:31;95986.75;;;10.19;70.96
75317;BME280;63913;51.492;10.368;2023-03-14T10:54:00;95997.88;;;10.21;71.18
75317;BME280;63913;51.492;10.368;2023-03-14T10:56:27;95985.94;;;10.14;71.43
75317;BME280;63913;51.492;10.368;2023-03-14T10:58:58;95985.06;;;10.15;71.39
75317;BME280;63913;51.492;10.368;2023-03-14T11:01:39;95992.75;;;10.17;71.63
75317;BME280;63913;51.492;10.368;2023-03-14T11:04:13;95992.78;;;10.15;70.65
75317;BME280;63913;51.492;10.368;2023-03-14T11:07:07;95984.97;;;10.23;70.99
75317;BME280;63913;51.492;10.368;2023-03-14T11:09:55;95984.97;;;10.24;71.34
75317;BME280;63913;51.492;10.368;2023-03-14T11:15:25;95995.22;;;10.24;71.82
75317;BME280;63913;51.492;10.368;2023-03-14T11:23:14;95982.22;;;10.33;71.46
75317;BME280;63913;51.492;10.368;2023-03-14T11:25:53;95992.50;;;10.33;70.94
75317;BME280;63913;51.492;10.368;2023-03-14T11:28:29;95981.31;;;10.38;71.22
75317;BME280;63913;51.492;10.368;2023-03-14T11:31:20;95987.22;;;10.41;71.26
75317;BME280;63913;51.492;10.368;2023-03-14T11:36:41;95975.25;;;10.42;71.66
75317;BME280;63913;51.492;10.368;2023-03-14T11:39:19;95984.75;;;10.37;71.42
75317;BME280;63913;51.492;10.368;2023-03-14T11:41:51;95989.09;;;10.33;72.50
75317;BME280;63913;51.492;10.368;2023-03-14T11:44:25;95968.53;;;10.33;72.61
75317;BME280;63913;51.492;10.368;2023-03-14T11:46:59;95970.25;;;10.32;72.58
75317;BME280;63913;51.492;10.368;2023-03-14T11:49:34;95973.69;;;10.33;72.95
75317;BME280;63913;51.492;10.368;2023-03-14T11:52:11;95977.19;;;10.29;73.48
75317;BME280;63913;51.492;10.368;2023-03-14T11:54:48;95971.19;;;10.28;74.43
75317;BME280;63913;51.492;10.368;2023-03-14T11:57:21;95977.19;;;10.29;74.33
75317;BME280;63913;51.492;10.368;2023-03-14T12:02:48;95989.03;;;10.36;75.14
75317;BME280;63913;51.492;10.368;2023-03-14T12:10:39;95977.66;;;10.51;73.82
75317;BME280;63913;51.492;10.368;2023-03-14T12:13:08;95970.84;;;10.47;74.31
75317;BME280;63913;51.492;10.368;2023-03-14T12:15:39;95969.97;;;10.48;74.41
75317;BME280;63913;51.492;10.368;2023-03-14T12:18:21;95960.63;;;10.45;72.72
75317;BME280;63913;51.492;10.368;2023-03-14T12:20:58;95956.25;;;10.49;73.37
75317;BME280;63913;51.492;10.368;2023-03-14T12:23:26;95961.34;;;10.53;72.48
75317;BME280;63913;51.492;10.368;2023-03-14T12:28:39;95951.81;;;10.58;72.69
75317;BME280;63913;51.492;10.368;2023-03-14T12:42:05;95958.84;;;10.47;73.35
75317;BME280;63913;51.492;10.368;2023-03-14T12:44:50;95944.41;;;10.43;75.33
75317;BME280;63913;51.492;10.368;2023-03-14T12:48:04;95957.38;;;10.36;76.80
75317;BME280;63913;51.492;10.368;2023-03-14T12:50:14;95973.94;;;10.19;78.16
75317;BME280;63913;51.492;10.368;2023-03-14T12:52:58;95977.59;;;10.03;80.20
75317;BME280;63913;51.492;10.368;2023-03-14T12:56:02;95978.72;;;9.85;81.10
75317;BME280;63913;51.492;10.368;2023-03-14T12:59:01;95999.38;;;9.78;82.25
75317;BME280;63913;51.492;10.368;2023-03-14T13:01:30;96083.34;;;9.67;83.17
75317;BME280;63913;51.492;10.368;2023-03-14T13:04:04;96115.72;;;9.02;81.92
75317;BME280;63913;51.492;10.368;2023-03-14T13:06:54;96125.63;;;8.48;82.39
75317;BME280;63913;51.492;10.368;2023-03-14T13:12:11;96109.69;;;8.08;84.31
75317;BME280;63913;51.492;10.368;2023-03-14T13:14:41;96125.94;;;8.02;84.04
75317;BME280;63913;51.492;10.368;2023-03-14T13:17:12;96127.72;;;7.90;83.92
75317;BME280;63913;51.492;10.368;2023-03-14T13:19:38;96145.66;;;7.85;84.63
75317;BME280;63913;51.492;10.368;2023-03-14T13:22:06;96183.22;;;7.71;85.73
75317;BME280;63913;51.492;10.368;2023-03-14T13:24:40;96201.19;;;7.47;87.10
75317;BME280;63913;51.492;10.368;2023-03-14T13:27:17;96207.22;;;7.34;86.79
75317;BME280;63913;51.492;10.368;2023-03-14T13:29:44;96243.00;;;7.08;84.23
75317;BME280;63913;51.492;10.368;2023-03-14T13:32:21;96239.63;;;6.77;82.45
75317;BME280;63913;51.492;10.368;2023-03-14T13:34:46;96253.22;;;6.56;82.17
75317;BME280;63913;51.492;10.368;2023-03-14T13:37:21;96262.56;;;6.59;83.71
75317;BME280;63913;51.492;10.368;2023-03-14T13:39:51;96266.81;;;6.44;83.33
75317;BME280;63913;51.492;10.368;2023-03-14T13:42:18;96274.41;;;6.26;82.71
75317;BME280;63913;51.492;10.368;2023-03-14T13:44:44;96288.84;;;6.12;83.29
75317;BME280;63913;51.492;10.368;2023-03-14T13:47:15;96317.75;;;6.08;84.15
75317;BME280;63913;51.492;10.368;2023-03-14T13:49:42;96302.41;;;5.99;84.32
75317;BME280;63913;51.492;10.368;2023-03-14T13:52:30;96322.75;;;5.93;83.54
75317;BME280;63913;51.492;10.368;2023-03-14T13:54:58;96321.09;;;5.98;84.25